createdAt,value
2018-12-13T00:01:44.602Z,17.40
2018-12-13T00:04:13.052Z,17.00
2018-12-13T00:06:41.512Z,16.03
2018-12-13T00:09:10.050Z,16.40
2018-12-13T00:11:38.468Z,15.70
2018-12-13T00:14:06.892Z,17.43
2018-12-13T00:16:35.377Z,16.93
2018-12-13T00:19:03.853Z,16.23
2018-12-13T00:21:32.260Z,18.00
2018-12-13T00:24:00.763Z,17.80
2018-12-13T00:26:29.170Z,17.07
2018-12-13T00:28:57.603Z,17.00
2018-12-13T00:31:26.028Z,17.37
2018-12-13T00:33:54.504Z,17.13
2018-12-13T00:36:22.935Z,17.27
2018-12-13T00:38:51.392Z,16.37
2018-12-13T00:41:19.833Z,18.47
2018-12-13T00:43:48.289Z,15.87
2018-12-13T00:46:16.747Z,16.97
2018-12-13T00:48:45.154Z,18.30
2018-12-13T00:51:13.699Z,18.33
2018-12-13T00:53:42.258Z,17.93
2018-12-13T00:56:10.674Z,17.50
2018-12-13T00:58:39.497Z,18.53
2018-12-13T01:01:07.997Z,18.50
2018-12-13T01:03:36.635Z,17.77
2018-12-13T01:06:05.119Z,18.37
2018-12-13T01:08:33.607Z,18.47
2018-12-13T01:11:02.048Z,16.80
2018-12-13T01:13:30.487Z,17.83
2018-12-13T01:15:58.940Z,19.47
2018-12-13T01:18:27.421Z,18.83
2018-12-13T01:20:55.938Z,17.70
2018-12-13T01:23:24.489Z,15.73
2018-12-13T01:25:52.938Z,16.77
2018-12-13T01:28:21.397Z,15.50
2018-12-13T01:30:49.876Z,17.23
2018-12-13T01:33:18.336Z,18.17
2018-12-13T01:35:46.767Z,17.87
2018-12-13T01:38:15.244Z,16.80
2018-12-13T01:40:44.293Z,17.57
2018-12-13T01:43:12.745Z,18.00
2018-12-13T01:45:41.245Z,16.20
2018-12-13T01:48:09.659Z,15.93
2018-12-13T01:50:38.145Z,14.03
2018-12-13T01:53:06.797Z,14.70
2018-12-13T01:55:35.343Z,16.07
2018-12-13T01:58:03.793Z,15.33
2018-12-13T02:00:32.396Z,14.47
2018-12-13T02:03:00.873Z,14.30
2018-12-13T02:05:29.437Z,14.10
2018-12-13T02:07:57.861Z,15.03
2018-12-13T02:10:26.315Z,14.67
2018-12-13T02:12:54.806Z,14.53
2018-12-13T02:15:23.325Z,13.80
2018-12-13T02:17:51.764Z,12.17
2018-12-13T02:20:20.263Z,13.10
2018-12-13T02:22:48.717Z,10.93
2018-12-13T02:25:17.207Z,13.07
2018-12-13T02:27:45.688Z,11.97
2018-12-13T02:30:14.171Z,12.07
2018-12-13T02:32:42.678Z,12.13
2018-12-13T02:35:11.262Z,13.47
2018-12-13T02:37:39.807Z,13.27
2018-12-13T02:40:08.297Z,12.20
2018-12-13T02:42:36.878Z,12.50
2018-12-13T02:45:05.337Z,12.73
2018-12-13T02:47:33.974Z,13.23
2018-12-13T02:50:02.492Z,13.37
2018-12-13T02:52:30.905Z,12.20
2018-12-13T02:54:59.371Z,12.73
2018-12-13T02:57:27.881Z,13.57
2018-12-13T02:59:56.377Z,13.40
2018-12-13T03:02:24.834Z,14.50
2018-12-13T03:04:53.293Z,14.50
2018-12-13T03:07:21.837Z,14.33
2018-12-13T03:09:50.249Z,13.30
2018-12-13T03:12:18.753Z,15.63
2018-12-13T03:14:47.202Z,15.33
2018-12-13T03:17:15.641Z,16.53
2018-12-13T03:19:44.115Z,14.60
2018-12-13T03:22:12.636Z,15.27
2018-12-13T03:24:41.049Z,15.37
2018-12-13T03:27:09.529Z,14.53
2018-12-13T03:29:38.009Z,13.97
2018-12-13T03:32:06.427Z,14.93
2018-12-13T03:34:34.936Z,18.10
2018-12-13T03:37:03.353Z,17.80
2018-12-13T03:39:31.785Z,16.97
2018-12-13T03:42:00.260Z,18.67
2018-12-13T03:44:28.844Z,17.47
2018-12-13T03:46:57.301Z,16.37
2018-12-13T03:49:25.792Z,18.10
2018-12-13T03:51:54.238Z,14.80
2018-12-13T03:54:22.684Z,15.77
2018-12-13T03:56:51.178Z,16.00
2018-12-13T03:59:19.592Z,17.93
2018-12-13T04:01:48.078Z,16.33
2018-12-13T04:04:16.516Z,18.27
2018-12-13T04:06:44.988Z,17.70
2018-12-13T04:09:13.470Z,17.90
2018-12-13T04:11:41.920Z,18.40
2018-12-13T04:14:10.412Z,18.33
2018-12-13T04:16:38.925Z,17.60
2018-12-13T04:19:07.410Z,17.93
2018-12-13T04:21:35.799Z,17.67
2018-12-13T04:24:04.270Z,19.90
2018-12-13T04:26:32.749Z,20.10
2018-12-13T04:29:01.197Z,19.23
2018-12-13T04:31:29.620Z,20.10
2018-12-13T04:33:58.121Z,21.30
2018-12-13T04:36:26.636Z,20.33
2018-12-13T04:38:55.110Z,19.10
2018-12-13T04:41:23.588Z,21.37
2018-12-13T04:43:52.102Z,20.80
2018-12-13T04:46:20.552Z,20.33
2018-12-13T04:48:49.088Z,20.97
2018-12-13T04:51:18.261Z,22.23
2018-12-13T04:53:46.805Z,22.07
2018-12-13T04:56:15.307Z,22.43
2018-12-13T04:58:43.731Z,21.70
2018-12-13T05:01:12.237Z,20.30
2018-12-13T05:03:40.672Z,20.67
2018-12-13T05:06:09.096Z,22.63
2018-12-13T05:08:37.644Z,23.60
2018-12-13T05:11:06.158Z,20.73
2018-12-13T05:13:34.706Z,21.87
2018-12-13T05:16:03.133Z,22.83
2018-12-13T05:18:31.625Z,22.53
2018-12-13T05:21:00.127Z,20.80
2018-12-13T05:23:28.555Z,22.83
2018-12-13T05:25:56.987Z,18.13
2018-12-13T05:28:25.415Z,21.17
2018-12-13T05:30:53.861Z,21.57
2018-12-13T05:33:22.332Z,22.13
2018-12-13T05:35:50.820Z,21.37
2018-12-13T05:38:19.257Z,22.67
2018-12-13T05:40:47.713Z,21.93
2018-12-13T05:43:16.112Z,21.13
2018-12-13T05:45:44.612Z,22.03
2018-12-13T05:48:13.130Z,22.47
2018-12-13T05:50:41.568Z,22.27
2018-12-13T05:53:10.000Z,22.17
2018-12-13T05:55:38.500Z,21.83
2018-12-13T05:58:06.922Z,23.40
2018-12-13T06:00:35.336Z,23.20
2018-12-13T06:03:04.470Z,20.00
2018-12-13T06:05:33.000Z,21.13
2018-12-13T06:08:01.430Z,24.23
2018-12-13T06:10:29.962Z,19.53
2018-12-13T06:12:58.496Z,22.00
2018-12-13T06:15:26.897Z,22.30
2018-12-13T06:17:55.347Z,20.63
2018-12-13T06:20:24.024Z,23.00
2018-12-13T06:22:52.461Z,22.77
2018-12-13T06:25:20.896Z,21.90
2018-12-13T06:27:49.329Z,22.40
2018-12-13T06:30:17.817Z,23.20
2018-12-13T06:32:46.393Z,22.83
2018-12-13T06:35:14.861Z,23.00
2018-12-13T06:37:43.276Z,20.33
2018-12-13T06:40:15.594Z,21.50
2018-12-13T06:42:43.073Z,17.23
2018-12-13T06:45:11.544Z,22.53
2018-12-13T06:47:40.116Z,20.53
2018-12-13T06:50:08.565Z,18.07
2018-12-13T06:52:37.463Z,23.33
2018-12-13T06:55:06.832Z,20.83
2018-12-13T06:57:35.497Z,20.10
2018-12-13T07:00:20.438Z,22.30
2018-12-13T07:02:48.884Z,20.50
2018-12-13T07:05:17.302Z,21.33
2018-12-13T07:07:46.350Z,19.27
2018-12-13T07:10:15.014Z,19.83
2018-12-13T07:12:43.570Z,20.93
2018-12-13T07:15:12.037Z,20.43
2018-12-13T07:17:40.448Z,16.50
2018-12-13T07:20:08.844Z,20.93
2018-12-13T07:22:37.338Z,20.53
2018-12-13T07:25:05.756Z,17.47
2018-12-13T07:27:34.156Z,20.90
2018-12-13T07:30:02.618Z,17.93
2018-12-13T07:32:31.058Z,21.53
2018-12-13T07:35:01.471Z,22.20
2018-12-13T07:37:30.112Z,21.03
2018-12-13T07:39:58.615Z,21.70
2018-12-13T07:42:27.061Z,22.57
2018-12-13T07:44:55.655Z,22.67
2018-12-13T07:47:24.095Z,22.13
2018-12-13T07:49:52.547Z,23.40
2018-12-13T07:52:20.977Z,18.80
2018-12-13T07:54:49.420Z,19.53
2018-12-13T07:57:17.899Z,18.40
2018-12-13T07:59:46.393Z,18.87
2018-12-13T08:02:14.879Z,16.83
2018-12-13T08:04:43.281Z,18.27
2018-12-13T08:07:11.791Z,17.67
2018-12-13T08:09:40.254Z,20.00
2018-12-13T08:12:08.692Z,19.63
2018-12-13T08:14:37.172Z,19.63
2018-12-13T08:17:05.580Z,18.67
2018-12-13T08:19:33.984Z,19.53
2018-12-13T08:22:02.464Z,19.33
2018-12-13T08:24:31.031Z,19.57
2018-12-13T08:26:59.450Z,20.73
2018-12-13T08:29:27.918Z,17.77
2018-12-13T08:31:56.366Z,21.57
2018-12-13T08:34:24.769Z,20.80
2018-12-13T08:36:53.232Z,21.83
2018-12-13T08:39:21.684Z,20.13
2018-12-13T08:41:50.103Z,20.10
2018-12-13T08:44:18.556Z,21.03
2018-12-13T08:46:47.075Z,19.10
2018-12-13T08:49:15.501Z,20.47
2018-12-13T08:51:43.942Z,19.47
2018-12-13T08:54:12.355Z,19.30
2018-12-13T08:56:40.785Z,18.73
2018-12-13T08:59:09.382Z,17.30
2018-12-13T09:01:38.007Z,19.30
2018-12-13T09:04:06.590Z,17.37
2018-12-13T09:06:35.025Z,17.00
2018-12-13T09:09:05.074Z,16.03
2018-12-13T09:11:33.497Z,17.03
2018-12-13T09:14:02.002Z,14.97
2018-12-13T09:16:31.678Z,16.03
2018-12-13T09:19:00.335Z,16.27
2018-12-13T09:21:28.783Z,15.13
2018-12-13T09:23:57.370Z,16.20
2018-12-13T09:26:25.780Z,15.67
2018-12-13T09:28:54.200Z,16.00
2018-12-13T09:31:22.672Z,16.27
2018-12-13T09:33:51.110Z,15.87
2018-12-13T09:36:19.601Z,15.13
2018-12-13T09:38:48.166Z,13.03
2018-12-13T09:41:16.553Z,15.57
2018-12-13T09:43:45.551Z,13.20
2018-12-13T09:46:14.157Z,11.47
2018-12-13T09:48:42.593Z,15.77
2018-12-13T09:51:11.049Z,16.13
2018-12-13T09:53:39.497Z,14.70
2018-12-13T09:56:07.916Z,13.13
2018-12-13T09:58:36.402Z,13.33
2018-12-13T10:01:04.870Z,14.50
2018-12-13T10:03:33.281Z,13.33
2018-12-13T10:06:01.703Z,9.97
2018-12-13T10:08:30.187Z,14.70
2018-12-13T10:10:58.605Z,13.67
2018-12-13T10:13:27.349Z,12.13
2018-12-13T10:15:55.805Z,14.93
2018-12-13T10:18:24.275Z,13.90
2018-12-13T10:20:52.810Z,15.00
2018-12-13T10:23:21.312Z,14.23
2018-12-13T10:25:49.795Z,15.43
2018-12-13T10:28:18.279Z,15.23
2018-12-13T10:30:46.723Z,13.33
2018-12-13T10:33:15.147Z,12.60
2018-12-13T10:35:43.609Z,15.23
2018-12-13T10:38:12.085Z,13.20
2018-12-13T10:40:40.549Z,13.90
2018-12-13T10:43:09.023Z,12.80
2018-12-13T10:45:37.430Z,15.07
2018-12-13T10:48:05.867Z,12.40
2018-12-13T10:50:34.430Z,13.27
2018-12-13T10:53:02.887Z,10.30
2018-12-13T10:55:31.325Z,13.83
2018-12-13T10:57:59.847Z,13.63
2018-12-13T11:00:37.263Z,13.30
2018-12-13T11:03:24.179Z,11.67
2018-12-13T11:05:52.620Z,13.83
2018-12-13T11:08:21.247Z,13.33
2018-12-13T11:10:49.699Z,15.60
2018-12-13T11:13:18.312Z,11.77
2018-12-13T11:15:46.747Z,11.70
2018-12-13T11:18:15.251Z,14.40
2018-12-13T11:20:43.676Z,14.83
2018-12-13T11:23:12.100Z,12.93
2018-12-13T11:25:40.543Z,14.93
2018-12-13T11:28:20.149Z,11.17
2018-12-13T11:30:48.635Z,14.80
2018-12-13T11:33:17.055Z,14.90
2018-12-13T11:35:45.472Z,16.13
2018-12-13T11:38:14.229Z,14.33
2018-12-13T11:40:42.655Z,14.63
2018-12-13T11:43:11.086Z,15.43
2018-12-13T11:45:39.547Z,13.97
2018-12-13T11:48:08.012Z,15.50
2018-12-13T11:50:36.447Z,14.83
2018-12-13T11:53:04.876Z,16.73
2018-12-13T11:55:35.641Z,17.00
2018-12-13T11:58:05.870Z,16.50
2018-12-13T12:00:34.428Z,17.13
2018-12-13T12:03:02.860Z,16.30
2018-12-13T12:05:31.389Z,15.57
2018-12-13T12:07:59.808Z,15.17
2018-12-13T12:10:28.225Z,16.17
2018-12-13T12:12:56.687Z,15.97
2018-12-13T12:15:25.218Z,16.80
2018-12-13T12:17:53.676Z,14.23
2018-12-13T12:20:22.373Z,16.97
2018-12-13T12:22:50.816Z,16.57
2018-12-13T12:25:19.530Z,15.57
2018-12-13T12:27:47.995Z,15.53
2018-12-13T12:30:16.440Z,15.00
2018-12-13T12:32:44.907Z,15.67
2018-12-13T12:35:13.473Z,16.00
2018-12-13T12:37:41.985Z,15.80
2018-12-13T12:40:10.420Z,16.63
2018-12-13T12:42:38.834Z,15.50
2018-12-13T12:45:07.643Z,15.23
2018-12-13T12:47:36.110Z,17.43
2018-12-13T12:50:05.904Z,13.83
2018-12-13T12:52:34.378Z,16.80
2018-12-13T12:55:02.870Z,15.70
2018-12-13T12:57:31.695Z,16.33
2018-12-13T13:00:00.188Z,15.40
2018-12-13T13:02:30.048Z,17.37
2018-12-13T13:04:58.502Z,15.93
2018-12-13T13:07:27.102Z,14.97
2018-12-13T13:09:55.558Z,16.33
2018-12-13T13:12:24.070Z,17.47
2018-12-13T13:14:52.550Z,16.93
2018-12-13T13:17:21.105Z,16.23
2018-12-13T13:19:49.699Z,14.93
2018-12-13T13:22:18.237Z,17.23
2018-12-13T13:24:46.743Z,18.67
2018-12-13T13:27:15.207Z,17.37
2018-12-13T13:29:43.687Z,16.17
2018-12-13T13:32:12.245Z,16.93
2018-12-13T13:34:40.738Z,16.07
2018-12-13T13:37:09.289Z,17.53
2018-12-13T13:39:37.794Z,15.47
2018-12-13T13:42:06.396Z,16.50
2018-12-13T13:44:37.790Z,16.63
2018-12-13T13:47:06.492Z,18.27
2018-12-13T13:49:35.269Z,17.07
2018-12-13T13:52:03.702Z,17.37
2018-12-13T13:54:32.174Z,14.73
2018-12-13T13:57:00.626Z,15.90
2018-12-13T13:59:29.066Z,16.30
2018-12-13T14:01:57.685Z,17.30
2018-12-13T14:04:26.118Z,16.80
2018-12-13T14:06:55.202Z,14.90
2018-12-13T14:09:23.863Z,14.67
2018-12-13T14:11:52.408Z,14.77
2018-12-13T14:14:21.051Z,17.43
2018-12-13T14:16:49.513Z,16.13
2018-12-13T14:19:18.054Z,17.07
2018-12-13T14:21:46.545Z,16.27
2018-12-13T14:24:15.097Z,16.27
2018-12-13T14:26:43.783Z,18.03
2018-12-13T14:29:12.234Z,17.37
2018-12-13T14:31:40.775Z,17.23
2018-12-13T14:34:09.413Z,15.97
2018-12-13T14:36:38.915Z,15.60
2018-12-13T14:39:07.733Z,15.70
2018-12-13T14:41:36.169Z,16.83
2018-12-13T14:44:04.698Z,16.97
2018-12-13T14:46:33.200Z,16.10
2018-12-13T14:49:01.662Z,15.50
2018-12-13T14:51:30.096Z,16.80
2018-12-13T14:53:58.596Z,14.10
2018-12-13T14:56:27.262Z,15.30
2018-12-13T14:58:55.707Z,15.67
2018-12-13T15:01:24.447Z,14.50
2018-12-13T15:03:52.925Z,15.03
2018-12-13T15:06:21.359Z,15.50
2018-12-13T15:08:49.792Z,15.50
2018-12-13T15:11:18.830Z,15.43
2018-12-13T15:13:47.832Z,15.40
2018-12-13T15:16:16.324Z,16.37
2018-12-13T15:18:44.804Z,17.50
2018-12-13T15:21:13.212Z,16.20
2018-12-13T15:23:41.759Z,15.63
2018-12-13T15:26:10.147Z,14.67
2018-12-13T15:28:38.582Z,15.07
2018-12-13T15:31:07.186Z,12.83
2018-12-13T15:33:35.616Z,14.40
2018-12-13T15:36:04.030Z,13.07
2018-12-13T15:38:32.556Z,13.13
2018-12-13T15:41:01.279Z,14.13
2018-12-13T15:43:29.985Z,14.30
2018-12-13T15:45:58.416Z,14.87
2018-12-13T15:48:26.865Z,15.43
2018-12-13T15:50:55.422Z,13.13
2018-12-13T15:53:23.998Z,13.80
2018-12-13T15:55:52.502Z,13.90
2018-12-13T15:58:21.125Z,14.27
2018-12-13T16:00:49.765Z,13.63
2018-12-13T16:03:19.521Z,13.60
2018-12-13T16:05:47.990Z,13.70
2018-12-13T16:08:16.868Z,13.20
2018-12-13T16:10:45.347Z,12.93
2018-12-13T16:13:13.931Z,12.30
2018-12-13T16:15:42.491Z,12.90
2018-12-13T16:18:10.977Z,13.93
2018-12-13T16:20:39.618Z,12.63
2018-12-13T16:23:08.162Z,13.07
2018-12-13T16:25:36.710Z,12.50
2018-12-13T16:28:05.232Z,13.10
2018-12-13T16:30:33.878Z,11.70
2018-12-13T16:33:02.374Z,12.30
2018-12-13T16:35:30.812Z,11.93
2018-12-13T16:37:59.320Z,12.70
2018-12-13T16:40:27.824Z,11.57
2018-12-13T16:42:56.769Z,13.07
2018-12-13T16:45:25.350Z,11.50
2018-12-13T16:47:54.803Z,12.03
2018-12-13T16:50:23.232Z,12.57
2018-12-13T16:52:51.689Z,12.47
2018-12-13T16:55:20.142Z,11.40
2018-12-13T16:57:48.554Z,12.33
2018-12-13T17:00:17.003Z,11.30
2018-12-13T17:02:45.911Z,12.33
2018-12-13T17:05:14.331Z,11.67
2018-12-13T17:07:42.775Z,12.17
2018-12-13T17:10:16.593Z,11.73
2018-12-13T17:12:41.784Z,11.23
2018-12-13T17:15:10.430Z,12.00
2018-12-13T17:17:38.919Z,10.20
2018-12-13T17:20:07.495Z,11.80
2018-12-13T17:22:35.982Z,10.70
2018-12-13T17:25:04.657Z,10.83
2018-12-13T17:27:33.096Z,11.50
2018-12-13T17:30:01.509Z,11.47
2018-12-13T17:32:30.606Z,11.33
2018-12-13T17:34:59.038Z,12.33
2018-12-13T17:37:27.591Z,11.97
2018-12-13T17:39:56.014Z,11.73
2018-12-13T17:42:24.436Z,10.97
2018-12-13T17:44:52.920Z,11.27
2018-12-13T17:47:21.332Z,10.43
2018-12-13T17:49:49.799Z,10.57
2018-12-13T17:52:18.282Z,11.07
2018-12-13T17:54:46.932Z,11.07
2018-12-13T17:57:15.334Z,11.50
2018-12-13T17:59:43.775Z,9.70
2018-12-13T18:02:12.292Z,10.70
2018-12-13T18:04:40.916Z,10.23
2018-12-13T18:07:09.426Z,10.43
2018-12-13T18:09:38.052Z,11.27
2018-12-13T18:12:06.576Z,10.53
2018-12-13T18:14:35.096Z,10.43
2018-12-13T18:17:03.737Z,9.97
2018-12-13T18:19:32.289Z,8.77
2018-12-13T18:22:00.928Z,10.70
2018-12-13T18:24:29.436Z,11.07
2018-12-13T18:26:58.094Z,10.57
2018-12-13T18:29:26.614Z,10.97
2018-12-13T18:31:55.132Z,10.90
2018-12-13T18:34:23.545Z,9.97
2018-12-13T18:36:52.022Z,11.67
2018-12-13T18:39:20.478Z,10.90
2018-12-13T18:41:48.889Z,10.97
2018-12-13T18:44:17.384Z,9.43
2018-12-13T18:46:45.811Z,11.63
2018-12-13T18:49:14.292Z,11.90
2018-12-13T18:51:43.978Z,11.30
2018-12-13T18:54:12.462Z,12.07
2018-12-13T18:56:41.501Z,12.50
2018-12-13T18:59:10.077Z,11.97
2018-12-13T19:01:38.592Z,11.73
2018-12-13T19:04:07.105Z,13.03
2018-12-13T19:06:36.501Z,12.00
2018-12-13T19:09:11.576Z,13.00
2018-12-13T19:11:40.127Z,12.90
2018-12-13T19:14:09.187Z,13.40
2018-12-13T19:16:37.705Z,12.97
2018-12-13T19:19:09.353Z,13.33
2018-12-13T19:24:43.335Z,11.67
2018-12-13T19:27:11.855Z,12.27
2018-12-13T19:29:40.436Z,12.30
2018-12-13T19:32:08.935Z,11.20
2018-12-13T19:34:37.523Z,11.77
2018-12-13T19:37:05.985Z,11.80
2018-12-13T19:39:34.490Z,11.00
2018-12-13T19:42:02.974Z,10.57
2018-12-13T19:44:31.567Z,10.60
2018-12-13T19:47:00.103Z,10.73
2018-12-13T19:49:28.568Z,10.03
2018-12-13T19:51:56.986Z,11.23
2018-12-13T19:54:25.500Z,10.37
2018-12-13T19:56:54.055Z,10.20
2018-12-13T19:59:22.804Z,10.97
2018-12-13T20:01:51.256Z,10.97
2018-12-13T20:04:19.696Z,10.83
2018-12-13T20:06:48.130Z,10.17
2018-12-13T20:09:16.604Z,10.33
2018-12-13T20:11:45.040Z,10.13
2018-12-13T20:14:13.524Z,10.37
2018-12-13T20:16:41.983Z,10.73
2018-12-13T20:19:10.562Z,9.50
2018-12-13T20:21:39.129Z,9.10
2018-12-13T20:24:08.483Z,9.63
2018-12-13T20:26:36.963Z,9.93
2018-12-13T20:29:05.436Z,11.07
2018-12-13T20:31:33.931Z,10.20
2018-12-13T20:34:02.392Z,11.43
2018-12-13T20:36:31.741Z,9.50
2018-12-13T20:39:01.509Z,9.97
2018-12-13T20:41:29.930Z,8.90
2018-12-13T20:43:58.379Z,8.63
2018-12-13T20:46:28.582Z,9.37
2018-12-13T20:48:57.067Z,10.63
2018-12-13T20:51:25.553Z,8.60
2018-12-13T20:53:54.039Z,7.90
2018-12-13T20:56:22.498Z,8.47
2018-12-13T20:58:50.930Z,9.37
2018-12-13T21:01:19.544Z,9.33
2018-12-13T21:03:48.025Z,8.80
2018-12-13T21:06:16.551Z,9.97
2018-12-13T21:08:44.971Z,10.07
2018-12-13T21:11:13.457Z,9.47
2018-12-13T21:13:41.877Z,10.37
2018-12-13T21:16:10.342Z,9.03
2018-12-13T21:18:38.767Z,9.53
2018-12-13T21:21:07.174Z,9.20
2018-12-13T21:23:35.725Z,9.23
2018-12-13T21:26:04.179Z,9.30
2018-12-13T21:28:32.766Z,10.93
2018-12-13T21:31:01.242Z,8.73
2018-12-13T21:33:29.701Z,9.57
2018-12-13T21:35:58.140Z,9.60
2018-12-13T21:38:26.571Z,9.83
2018-12-13T21:40:54.997Z,9.70
2018-12-13T21:43:23.495Z,9.77
2018-12-13T21:45:51.920Z,9.10
2018-12-13T21:48:21.262Z,10.10
2018-12-13T21:50:49.668Z,10.30
2018-12-13T21:53:18.366Z,9.33
2018-12-13T21:55:46.837Z,9.50
2018-12-13T21:58:15.280Z,10.57
2018-12-13T22:00:43.702Z,8.90
2018-12-13T22:03:12.179Z,9.97
2018-12-13T22:05:40.607Z,9.93
2018-12-13T22:08:09.073Z,9.60
2018-12-13T22:10:37.530Z,9.50
2018-12-13T22:13:06.090Z,9.40
2018-12-13T22:15:34.580Z,9.17
2018-12-13T22:18:03.106Z,10.27
2018-12-13T22:20:31.521Z,9.07
2018-12-13T22:23:00.045Z,9.67
2018-12-13T22:25:28.567Z,8.07
2018-12-13T22:27:56.999Z,9.70
2018-12-13T22:30:25.463Z,9.10
2018-12-13T22:32:53.932Z,9.70
2018-12-13T22:35:22.525Z,9.77
2018-12-13T22:37:51.497Z,10.27
2018-12-13T22:40:19.953Z,11.90
2018-12-13T22:42:48.361Z,11.47
2018-12-13T22:45:16.812Z,10.53
2018-12-13T22:47:45.267Z,12.40
2018-12-13T22:50:13.698Z,12.93
2018-12-13T22:52:42.218Z,12.10
2018-12-13T22:55:10.632Z,12.50
2018-12-13T22:57:39.050Z,12.10
2018-12-13T23:00:10.320Z,12.07
2018-12-13T23:02:38.863Z,12.03
2018-12-13T23:05:07.370Z,10.93
2018-12-13T23:07:35.849Z,13.33
2018-12-13T23:10:04.309Z,13.40
2018-12-13T23:12:32.761Z,13.50
2018-12-13T23:15:01.209Z,13.17
2018-12-13T23:17:29.794Z,12.53
2018-12-13T23:19:58.316Z,13.57
2018-12-13T23:22:26.763Z,14.47
2018-12-13T23:24:55.236Z,14.87
2018-12-13T23:27:23.770Z,13.90
2018-12-13T23:29:52.254Z,14.03
2018-12-13T23:32:20.655Z,13.67
2018-12-13T23:34:49.223Z,13.93
2018-12-13T23:37:17.678Z,14.23
2018-12-13T23:39:46.146Z,14.03
2018-12-13T23:42:14.636Z,13.57
2018-12-13T23:44:43.120Z,13.73
2018-12-13T23:47:11.568Z,14.13
2018-12-13T23:49:39.986Z,14.17
2018-12-13T23:52:08.454Z,14.17
2018-12-13T23:54:36.904Z,15.20
2018-12-13T23:57:05.356Z,15.23
2018-12-13T23:59:33.805Z,14.07
